Time;durP1;ratioP1;P1;durP2;ratioP2;P2;SDS_P1;SDS_P2;PMS_P1;PMS_P2;Temp;Humidity;BMP_temperature;BMP_pressure;BME280_temperature;BME280_humidity;BME280_pressure;Samples;Min_cycle;Max_cycle;Signal;HPM_P1;HPM_P2
2022/07/20 00:00:10;;;;;;;8.48;2.63;;;24.90;73.40;;;;;;5088467;28;20046;-73
2022/07/20 00:02:36;;;;;;;5.85;2.67;;;24.80;73.80;;;;;;5079874;28;20031;-73
2022/07/20 00:05:05;;;;;;;4.72;2.85;;;24.80;73.50;;;;;;5079091;28;20028;-73
2022/07/20 00:07:32;;;;;;;2.95;2.08;;;24.70;73.70;;;;;;5080503;28;20024;-73
2022/07/20 00:12:41;;;;;;;4.82;2.60;;;24.60;74.10;;;;;;5094481;28;20527;-74
2022/07/20 00:15:08;;;;;;;5.80;2.28;;;24.60;74.30;;;;;;5086911;28;20037;-73
2022/07/20 00:17:34;;;;;;;4.60;2.30;;;24.70;74.10;;;;;;5072787;28;20020;-72
2022/07/20 00:19:59;;;;;;;4.57;2.00;;;24.70;74.00;;;;;;5076855;28;20474;-74
2022/07/20 00:22:25;;;;;;;5.30;2.28;;;24.70;74.50;;;;;;5086019;28;20035;-73
2022/07/20 00:24:51;;;;;;;3.50;2.30;;;24.70;74.20;;;;;;5087779;28;20497;-73
2022/07/20 00:27:16;;;;;;;5.68;2.33;;;24.70;73.90;;;;;;5082222;28;20028;-72
2022/07/20 00:29:42;;;;;;;3.30;2.10;;;24.80;73.50;;;;;;5076740;28;20024;-73
2022/07/20 00:32:08;;;;;;;8.10;2.25;;;24.90;73.20;;;;;;5093422;28;20607;-73
2022/07/20 00:34:34;;;;;;;6.20;2.10;;;25.00;73.50;;;;;;5090499;28;20044;-73
2022/07/20 00:37:02;;;;;;;4.32;2.30;;;25.00;73.50;;;;;;5085146;28;20027;-73
2022/07/20 00:39:28;;;;;;;5.55;1.88;;;25.00;73.50;;;;;;5090426;28;20094;-73
2022/07/20 00:41:54;;;;;;;8.35;2.15;;;25.00;73.60;;;;;;5082624;28;20016;-72
2022/07/20 00:44:19;;;;;;;16.00;2.50;;;24.90;73.50;;;;;;5075429;28;20024;-73
2022/07/20 00:46:46;;;;;;;4.65;2.33;;;24.90;73.50;;;;;;5084533;28;20020;-73
2022/07/20 00:49:13;;;;;;;4.25;2.22;;;24.90;73.50;;;;;;5090648;28;20107;-73
2022/07/20 00:51:43;;;;;;;7.55;2.53;;;24.80;73.70;;;;;;5082516;28;20390;-73
2022/07/20 00:54:09;;;;;;;5.32;2.45;;;24.80;74.10;;;;;;5075240;28;20032;-73
2022/07/20 00:56:35;;;;;;;4.15;2.60;;;24.80;74.40;;;;;;5082907;28;20036;-73
2022/07/20 00:59:07;;;;;;;3.97;2.30;;;24.80;74.60;;;;;;5074257;28;20046;-73
2022/07/20 01:01:34;;;;;;;8.20;2.70;;;24.80;74.60;;;;;;5083261;28;20023;-73
2022/07/20 01:03:59;;;;;;;11.63;2.70;;;24.70;74.70;;;;;;5072339;28;20278;-74
2022/07/20 01:06:26;;;;;;;4.32;2.28;;;24.60;74.90;;;;;;5084220;28;20004;-74
2022/07/20 01:08:52;;;;;;;15.07;3.88;;;24.60;75.00;;;;;;5072349;28;20028;-73
2022/07/20 01:11:18;;;;;;;12.57;3.92;;;24.60;75.00;;;;;;5082884;28;20090;-73
2022/07/20 01:13:44;;;;;;;10.43;3.10;;;24.60;75.10;;;;;;5072853;28;20020;-74
2022/07/20 01:16:10;;;;;;;8.82;3.15;;;24.60;74.80;;;;;;5081034;28;20032;-73
2022/07/20 01:18:39;;;;;;;6.95;2.67;;;24.60;74.80;;;;;;5091701;28;20028;-73
2022/07/20 01:21:06;;;;;;;5.40;1.80;;;24.60;74.20;;;;;;5084908;28;20095;-73
2022/07/20 01:23:32;;;;;;;5.32;1.98;;;24.70;74.90;;;;;;5072938;28;20056;-73
2022/07/20 01:25:58;;;;;;;3.95;2.00;;;24.70;74.30;;;;;;5084280;28;20488;-73
2022/07/20 01:28:24;;;;;;;3.78;2.10;;;24.70;73.70;;;;;;5072952;28;20063;-73
2022/07/20 01:30:50;;;;;;;3.05;1.58;;;24.80;73.60;;;;;;5078646;28;20052;-73
2022/07/20 01:33:20;;;;;;;3.50;2.17;;;24.90;73.20;;;;;;5092755;28;20048;-73
2022/07/20 01:35:46;;;;;;;5.35;1.95;;;24.90;73.00;;;;;;5086579;28;20706;-73
2022/07/20 01:38:11;;;;;;;2.00;1.75;;;25.00;72.60;;;;;;5073587;28;20100;-73
2022/07/20 01:40:37;;;;;;;6.03;2.00;;;25.10;72.30;;;;;;5082221;28;20052;-73
2022/07/20 01:43:03;;;;;;;7.30;2.10;;;25.20;71.80;;;;;;5074286;28;20375;-72
2022/07/20 01:45:29;;;;;;;4.07;1.63;;;25.30;71.70;;;;;;5076797;28;20116;-73
2022/07/20 01:47:54;;;;;;;2.33;1.55;;;25.40;71.60;;;;;;5089506;28;20028;-73
2022/07/20 01:50:20;;;;;;;2.33;1.95;;;25.40;71.70;;;;;;5086147;28;20093;-73
2022/07/20 01:52:46;;;;;;;2.70;1.70;;;25.40;71.30;;;;;;5076664;28;20032;-73
2022/07/20 01:55:12;;;;;;;2.63;1.80;;;25.40;71.20;;;;;;5078264;28;20122;-74
2022/07/20 01:57:37;;;;;;;4.38;1.75;;;25.40;71.40;;;;;;5076886;28;20393;-73
2022/07/20 02:00:09;;;;;;;3.05;1.70;;;25.30;71.60;;;;;;5076991;28;20031;-74
2022/07/20 02:02:35;;;;;;;3.30;1.57;;;25.30;71.70;;;;;;5077774;28;20107;-73
2022/07/20 02:05:00;;;;;;;3.78;1.70;;;25.20;71.90;;;;;;5076489;28;20112;-73
2022/07/20 02:07:26;;;;;;;3.63;1.88;;;25.10;72.00;;;;;;5079075;28;20039;-73
2022/07/20 02:09:52;;;;;;;8.60;2.22;;;25.10;72.20;;;;;;5075334;28;20466;-73
2022/07/20 02:12:19;;;;;;;8.95;2.40;;;25.00;72.20;;;;;;5080188;28;20060;-73
2022/07/20 02:14:45;;;;;;;15.15;2.65;;;25.00;72.20;;;;;;5075547;28;20380;-73
2022/07/20 02:17:10;;;;;;;6.55;2.58;;;25.00;72.40;;;;;;5081867;28;20046;-73
2022/07/20 02:19:36;;;;;;;10.18;2.35;;;24.90;72.60;;;;;;5085822;28;20025;-73
2022/07/20 02:22:02;;;;;;;15.90;2.63;;;24.90;72.80;;;;;;5080657;28;20029;-74
2022/07/20 02:24:28;;;;;;;6.72;2.15;;;24.80;72.90;;;;;;5074160;28;20286;-73
2022/07/20 02:26:53;;;;;;;4.72;2.00;;;24.80;73.00;;;;;;5080623;28;20048;-73
2022/07/20 02:29:19;;;;;;;4.15;2.13;;;24.80;72.90;;;;;;5073005;28;20028;-74
2022/07/20 02:31:45;;;;;;;7.15;1.75;;;24.80;73.00;;;;;;5079045;28;20452;-73
2022/07/20 02:34:10;;;;;;;2.97;2.00;;;24.80;73.00;;;;;;5073577;28;20032;-73
2022/07/20 02:36:36;;;;;;;3.80;2.35;;;24.70;72.90;;;;;;5081030;28;20027;-73
2022/07/20 02:39:03;;;;;;;4.07;1.75;;;24.70;73.10;;;;;;5072261;28;20020;-73
2022/07/20 02:41:29;;;;;;;7.03;1.80;;;24.60;73.30;;;;;;5078365;28;20563;-73
2022/07/20 02:43:55;;;;;;;7.15;1.70;;;24.60;73.40;;;;;;5090498;28;20020;-73
2022/07/20 02:46:21;;;;;;;5.78;2.13;;;24.60;73.60;;;;;;5080238;28;20478;-73
2022/07/20 02:48:49;;;;;;;3.63;1.83;;;24.50;73.80;;;;;;5091082;28;20020;-73
2022/07/20 02:51:15;;;;;;;2.50;2.03;;;24.40;73.80;;;;;;5076757;28;20443;-73
2022/07/20 02:53:40;;;;;;;10.30;1.90;;;24.40;74.10;;;;;;5071220;28;20107;-73
2022/07/20 02:56:06;;;;;;;5.18;2.15;;;24.30;74.30;;;;;;5082711;28;20127;-73
2022/07/20 02:58:32;;;;;;;3.35;1.63;;;24.30;74.50;;;;;;5071244;28;20056;-73
2022/07/20 03:00:58;;;;;;;5.00;2.13;;;24.30;74.60;;;;;;5082919;28;20119;-73
2022/07/20 03:03:24;;;;;;;5.80;2.10;;;24.20;74.70;;;;;;5069762;28;20536;-73
2022/07/20 03:05:51;;;;;;;3.63;1.85;;;24.20;74.70;;;;;;5076086;28;20112;-73
2022/07/20 03:08:17;;;;;;;3.90;1.75;;;24.20;74.70;;;;;;5051236;28;20032;-73
2022/07/20 03:10:46;;;;;;;3.58;1.98;;;24.10;74.90;;;;;;5077484;28;20028;-73
2022/07/20 03:13:11;;;;;;;3.00;2.20;;;24.10;74.90;;;;;;5070237;28;20066;-73
2022/07/20 03:15:37;;;;;;;3.20;2.00;;;24.10;75.10;;;;;;5075306;28;20075;-73
2022/07/20 03:18:03;;;;;;;1.83;1.73;;;24.00;75.00;;;;;;5089152;28;20048;-73
2022/07/20 03:20:31;;;;;;;6.38;2.05;;;24.00;75.20;;;;;;5083601;28;20070;-74
2022/07/20 03:22:58;;;;;;;3.97;1.75;;;24.00;75.30;;;;;;5073463;28;20025;-73
2022/07/20 03:25:27;;;;;;;2.90;2.00;;;23.90;75.20;;;;;;5078362;28;20514;-73
2022/07/20 03:27:53;;;;;;;9.32;2.05;;;23.90;75.20;;;;;;5074205;28;20536;-74
2022/07/20 03:30:20;;;;;;;2.00;1.60;;;23.90;75.20;;;;;;5077974;28;20390;-73
2022/07/20 03:32:45;;;;;;;2.38;1.70;;;23.90;75.30;;;;;;5074943;28;20025;-73
2022/07/20 03:35:11;;;;;;;2.10;1.90;;;23.90;75.40;;;;;;5076901;28;20036;-73
2022/07/20 03:37:37;;;;;;;3.35;1.92;;;23.80;75.60;;;;;;5076436;28;20059;-74
2022/07/20 03:40:04;;;;;;;3.63;2.00;;;23.80;75.80;;;;;;5075542;28;20064;-74
2022/07/20 03:42:31;;;;;;;4.38;1.73;;;23.80;76.10;;;;;;5077035;28;20028;-74
2022/07/20 03:44:57;;;;;;;2.65;1.80;;;23.70;76.00;;;;;;5076485;28;20050;-74
2022/07/20 03:47:23;;;;;;;2.78;1.92;;;23.70;76.00;;;;;;5083003;28;20024;-73
2022/07/20 03:49:50;;;;;;;3.78;1.70;;;23.80;76.00;;;;;;5084784;28;20028;-74
2022/07/20 03:52:16;;;;;;;5.82;1.77;;;23.80;75.80;;;;;;5079185;28;20481;-74
2022/07/20 03:54:42;;;;;;;6.03;2.15;;;23.90;75.80;;;;;;5073041;28;20037;-74
2022/07/20 03:57:08;;;;;;;1.88;1.65;;;23.90;75.50;;;;;;5079390;28;20117;-74
2022/07/20 03:59:34;;;;;;;4.95;2.13;;;24.00;75.60;;;;;;5073287;28;20133;-74
2022/07/20 04:01:59;;;;;;;4.00;1.80;;;24.00;75.00;;;;;;5079623;28;20020;-74
2022/07/20 04:04:27;;;;;;;2.20;1.65;;;24.00;74.80;;;;;;5073174;28;20455;-75
2022/07/20 04:06:53;;;;;;;8.05;2.05;;;24.00;74.70;;;;;;5079320;28;20059;-74
2022/07/20 04:09:43;;;;;;;8.02;1.90;;;24.10;74.80;;;;;;5088457;28;20482;-73
2022/07/20 04:12:05;;;;;;;1.80;1.60;;;24.10;74.80;;;;;;5079225;28;20434;-73
2022/07/20 04:14:31;;;;;;;2.40;1.83;;;24.10;74.70;;;;;;5072336;28;20495;-74
2022/07/20 04:16:56;;;;;;;4.82;1.73;;;24.20;75.00;;;;;;5081968;28;20047;-73
2022/07/20 04:19:22;;;;;;;8.30;1.80;;;24.20;74.80;;;;;;5086589;28;20028;-74
2022/07/20 04:21:48;;;;;;;6.25;2.15;;;24.20;75.00;;;;;;5080966;28;20382;-74
2022/07/20 04:24:13;;;;;;;4.20;1.92;;;24.20;75.80;;;;;;5076222;28;20089;-73
2022/07/20 04:26:39;;;;;;;2.17;1.85;;;24.30;75.10;;;;;;5082919;28;20488;-74
2022/07/20 04:29:05;;;;;;;5.55;1.88;;;24.30;75.00;;;;;;5075181;28;20035;-73
2022/07/20 04:31:30;;;;;;;3.65;1.88;;;24.30;74.80;;;;;;5084189;28;20028;-73
2022/07/20 04:33:56;;;;;;;3.35;1.65;;;24.40;74.40;;;;;;5072738;28;20024;-73
2022/07/20 04:36:23;;;;;;;7.25;1.88;;;24.40;74.20;;;;;;5084889;28;20112;-74
2022/07/20 04:38:49;;;;;;;3.25;1.70;;;24.50;74.10;;;;;;5072651;28;20017;-74
2022/07/20 04:41:15;;;;;;;7.30;2.00;;;24.60;74.10;;;;;;5085131;28;20161;-74
2022/07/20 04:43:40;;;;;;;2.63;1.80;;;24.60;73.90;;;;;;5073733;28;20386;-74
2022/07/20 04:46:06;;;;;;;2.30;1.30;;;24.60;73.80;;;;;;5081373;28;20378;-75
2022/07/20 04:48:32;;;;;;;6.72;2.03;;;24.70;73.70;;;;;;5093909;28;20474;-74
2022/07/20 04:50:57;;;;;;;2.00;1.50;;;24.80;73.50;;;;;;5086298;28;20020;-72
2022/07/20 04:53:23;;;;;;;7.75;1.60;;;24.80;73.50;;;;;;5073472;28;20035;-73
2022/07/20 04:55:49;;;;;;;3.72;1.63;;;24.90;73.30;;;;;;5084692;28;20024;-72
2022/07/20 04:58:14;;;;;;;2.60;1.77;;;25.00;73.40;;;;;;5072485;28;20367;-72
2022/07/20 05:00:40;;;;;;;4.18;1.80;;;25.00;73.20;;;;;;5083386;28;20082;-72
2022/07/20 05:03:06;;;;;;;8.85;1.85;;;25.00;73.10;;;;;;5074682;28;20102;-73
2022/07/20 05:05:31;;;;;;;4.82;1.75;;;25.10;73.60;;;;;;5079146;28;20024;-72
2022/07/20 05:07:57;;;;;;;11.95;2.20;;;25.20;73.20;;;;;;5090506;28;20020;-73
2022/07/20 05:10:23;;;;;;;2.83;1.60;;;25.20;73.20;;;;;;5087175;28;20110;-74
2022/07/20 05:12:48;;;;;;;3.15;1.67;;;25.20;73.00;;;;;;5077180;28;20064;-73
2022/07/20 05:15:14;;;;;;;2.45;1.70;;;25.20;73.20;;;;;;5077247;28;20040;-75
2022/07/20 05:17:40;;;;;;;3.72;1.90;;;25.40;73.20;;;;;;5086870;28;20016;-75
2022/07/20 05:20:07;;;;;;;6.97;1.90;;;25.40;72.80;;;;;;5085366;28;20063;-74
2022/07/20 05:22:33;;;;;;;3.35;1.80;;;25.40;72.80;;;;;;5086980;28;20016;-75
2022/07/20 05:24:58;;;;;;;6.93;2.10;;;25.50;72.80;;;;;;5085384;28;20118;-75
2022/07/20 05:27:24;;;;;;;2.22;1.77;;;25.50;72.90;;;;;;5079075;28;20544;-75
2022/07/20 05:29:50;;;;;;;3.80;1.98;;;25.50;72.90;;;;;;5075700;28;20017;-74
2022/07/20 05:32:16;;;;;;;6.57;1.80;;;25.60;72.90;;;;;;5080052;28;20129;-74
2022/07/20 05:34:41;;;;;;;6.93;1.85;;;25.60;72.60;;;;;;5075322;28;20041;-73
2022/07/20 05:37:10;;;;;;;4.68;2.00;;;25.70;72.60;;;;;;5081789;28;20032;-74
2022/07/20 05:39:35;;;;;;;4.60;1.90;;;25.70;72.70;;;;;;5075295;28;20039;-73
2022/07/20 05:42:01;;;;;;;5.30;2.20;;;25.80;72.40;;;;;;5080339;28;20029;-73
2022/07/20 05:44:27;;;;;;;4.95;1.90;;;25.80;72.50;;;;;;5075428;28;20553;-73
2022/07/20 05:46:52;;;;;;;1.88;1.67;;;25.90;72.60;;;;;;5075169;28;20027;-73
2022/07/20 05:49:18;;;;;;;2.50;1.83;;;25.90;72.40;;;;;;5075079;28;20024;-73
2022/07/20 05:51:44;;;;;;;3.30;1.60;;;25.90;72.50;;;;;;5080023;28;20020;-73
2022/07/20 05:54:09;;;;;;;3.28;2.00;;;26.00;72.40;;;;;;5072914;28;20059;-74
2022/07/20 05:56:35;;;;;;;4.97;1.80;;;26.00;72.50;;;;;;5082074;28;20477;-74
2022/07/20 05:59:01;;;;;;;5.10;1.73;;;26.10;72.30;;;;;;5072811;28;20028;-73
2022/07/20 06:01:27;;;;;;;4.28;1.77;;;26.10;72.30;;;;;;5083104;28;20075;-73
2022/07/20 06:03:52;;;;;;;4.45;1.92;;;26.20;72.40;;;;;;5072310;28;20028;-73
2022/07/20 06:06:18;;;;;;;4.68;2.00;;;26.30;72.60;;;;;;5083167;28;20039;-73
2022/07/20 06:08:44;;;;;;;5.65;1.95;;;26.40;71.60;;;;;;5072206;28;20041;-74
2022/07/20 06:11:09;;;;;;;4.68;1.98;;;26.50;71.80;;;;;;5080180;28;20016;-73
2022/07/20 06:13:35;;;;;;;6.32;1.75;;;26.60;71.60;;;;;;5092143;28;20032;-75
2022/07/20 06:16:05;;;;;;;3.00;1.80;;;26.60;71.50;;;;;;5080159;28;20123;-74
2022/07/20 06:18:30;;;;;;;7.18;2.00;;;26.70;70.80;;;;;;5090824;28;20500;-74
2022/07/20 06:20:56;;;;;;;4.40;1.85;;;26.80;70.50;;;;;;5085142;28;20290;-73
2022/07/20 06:23:21;;;;;;;4.95;1.65;;;26.90;70.30;;;;;;5071673;28;20076;-75
2022/07/20 06:25:47;;;;;;;3.03;1.70;;;27.00;70.50;;;;;;5082726;28;20059;-75
2022/07/20 06:28:15;;;;;;;2.72;2.00;;;27.00;69.50;;;;;;5070950;28;20028;-74
2022/07/20 06:30:41;;;;;;;8.35;1.90;;;27.10;69.40;;;;;;5081738;28;20024;-75
2022/07/20 06:33:07;;;;;;;4.45;1.73;;;27.20;69.40;;;;;;5072767;28;20024;-76
2022/07/20 06:35:36;;;;;;;3.17;1.55;;;27.30;69.40;;;;;;5080642;28;20497;-74
2022/07/20 06:38:02;;;;;;;4.25;1.83;;;27.40;68.90;;;;;;5073766;28;20454;-73
2022/07/20 06:40:28;;;;;;;4.15;1.80;;;27.50;69.00;;;;;;5078655;28;20052;-75
2022/07/20 06:42:53;;;;;;;3.60;1.70;;;27.60;68.60;;;;;;5074822;28;20521;-75
2022/07/20 06:45:19;;;;;;;3.95;1.75;;;27.60;68.30;;;;;;5081238;28;20024;-77
2022/07/20 06:47:46;;;;;;;6.25;2.05;;;27.70;68.10;;;;;;5074752;28;20463;-77
2022/07/20 06:50:15;;;;;;;3.50;1.83;;;27.80;68.00;;;;;;5077437;28;20054;-78
2022/07/20 06:52:41;;;;;;;3.10;2.00;;;27.90;67.50;;;;;;5076256;28;20020;-79
2022/07/20 06:55:07;;;;;;;6.55;1.95;;;28.00;67.70;;;;;;5075477;28;20033;-77
2022/07/20 06:57:33;;;;;;;2.95;1.88;;;28.10;67.80;;;;;;5091796;28;20501;-78
2022/07/20 07:00:02;;;;;;;4.95;1.85;;;28.20;67.50;;;;;;5085269;28;20017;-78
2022/07/20 07:02:46;;;;;;;4.45;1.63;;;28.30;66.60;;;;;;5078094;28;20086;-78
2022/07/20 07:05:16;;;;;;;8.15;1.90;;;28.40;66.30;;;;;;5077250;28;20397;-78
2022/07/20 07:07:42;;;;;;;3.83;1.75;;;28.40;66.20;;;;;;5076242;28;20052;-76
2022/07/20 07:10:07;;;;;;;6.30;1.50;;;28.50;65.80;;;;;;5076892;28;20063;-76
2022/07/20 07:12:33;;;;;;;9.82;2.25;;;28.60;65.50;;;;;;5075994;28;20105;-76
2022/07/20 07:15:00;;;;;;;5.03;1.77;;;28.70;65.60;;;;;;5076957;28;20035;-77
2022/07/20 07:17:27;;;;;;;8.18;1.77;;;28.70;65.00;;;;;;5083368;28;20024;-75
2022/07/20 07:19:53;;;;;;;4.13;1.52;;;28.80;64.50;;;;;;5087327;28;20027;-76
2022/07/20 07:22:19;;;;;;;4.50;1.42;;;28.90;64.70;;;;;;5082070;28;20027;-76
2022/07/20 07:24:44;;;;;;;3.53;1.90;;;29.00;63.40;;;;;;5084952;28;20077;-76
2022/07/20 07:27:10;;;;;;;6.55;1.65;;;29.10;64.00;;;;;;5080251;28;20028;-77
2022/07/20 07:29:36;;;;;;;4.20;1.75;;;29.10;64.10;;;;;;5083170;28;20039;-75
2022/07/20 07:32:01;;;;;;;3.80;1.70;;;29.20;63.80;;;;;;5078058;28;20050;-77
2022/07/20 07:34:28;;;;;;;10.82;1.77;;;29.20;63.10;;;;;;5071601;28;20040;-77
2022/07/20 07:36:55;;;;;;;6.15;1.70;;;29.30;62.60;;;;;;5086227;28;20016;-77
2022/07/20 07:39:21;;;;;;;4.40;1.45;;;29.40;62.00;;;;;;5083451;28;20025;-76
2022/07/20 07:41:47;;;;;;;3.22;1.60;;;29.40;61.60;;;;;;5078427;28;20051;-77
2022/07/20 07:44:12;;;;;;;3.90;1.75;;;29.50;61.30;;;;;;5084821;28;20055;-75
2022/07/20 07:46:38;;;;;;;2.28;1.55;;;29.60;61.80;;;;;;5077254;28;20025;-76
2022/07/20 07:49:04;;;;;;;3.22;1.65;;;29.60;61.40;;;;;;5085843;28;20032;-75
2022/07/20 07:51:30;;;;;;;5.63;1.77;;;29.70;61.00;;;;;;5077934;28;20028;-75
2022/07/20 07:53:56;;;;;;;4.32;1.55;;;29.70;61.10;;;;;;5070691;28;20483;-76
2022/07/20 07:56:22;;;;;;;2.95;1.67;;;29.80;60.90;;;;;;5082647;28;20029;-76
2022/07/20 07:58:48;;;;;;;3.05;1.35;;;29.90;60.80;;;;;;5074505;28;20017;-75
2022/07/20 08:01:17;;;;;;;5.68;1.50;;;29.90;60.30;;;;;;5082299;28;20024;-76
2022/07/20 08:03:43;;;;;;;6.90;2.10;;;30.00;60.30;;;;;;5094684;28;20028;-76
2022/07/20 08:06:09;;;;;;;8.07;1.50;;;30.00;60.00;;;;;;5081134;28;20036;-76
2022/07/20 08:08:34;;;;;;;4.45;1.67;;;30.00;59.80;;;;;;5094676;28;20415;-76
2022/07/20 08:11:00;;;;;;;3.22;1.45;;;30.00;60.30;;;;;;5086899;28;20107;-76
2022/07/20 08:13:27;;;;;;;4.13;1.80;;;30.10;60.30;;;;;;5074100;28;20033;-77
2022/07/20 08:15:53;;;;;;;6.70;1.88;;;30.10;60.40;;;;;;5080013;28;20060;-76
2022/07/20 08:18:19;;;;;;;6.68;1.52;;;30.30;59.90;;;;;;5094557;28;20031;-77
2022/07/20 08:20:45;;;;;;;5.15;1.60;;;30.30;59.80;;;;;;5087982;28;20036;-76
2022/07/20 08:23:11;;;;;;;4.53;1.65;;;30.40;59.40;;;;;;5074973;28;20024;-77
2022/07/20 08:25:39;;;;;;;3.40;1.70;;;30.60;59.20;;;;;;5083479;28;20559;-76
2022/07/20 08:28:23;;;;;;;2.60;1.70;;;30.60;58.20;;;;;;5074333;28;20029;-76
2022/07/20 08:30:52;;;;;;;4.90;1.58;;;30.60;58.60;;;;;;5085110;28;20497;-76
2022/07/20 08:33:18;;;;;;;2.40;1.50;;;30.70;59.30;;;;;;5053634;28;20048;-75
2022/07/20 08:35:44;;;;;;;9.82;1.98;;;30.70;58.50;;;;;;5079474;28;20036;-75
2022/07/20 08:38:10;;;;;;;1.77;1.30;;;30.80;58.30;;;;;;5074844;28;20047;-76
2022/07/20 08:40:36;;;;;;;5.63;1.40;;;30.90;57.60;;;;;;5083105;28;20482;-75
2022/07/20 08:43:02;;;;;;;5.70;1.55;;;31.00;57.20;;;;;;5075767;28;20032;-75
2022/07/20 08:45:29;;;;;;;4.50;1.55;;;31.00;57.40;;;;;;5079368;28;20021;-77
2022/07/20 08:47:58;;;;;;;2.80;1.42;;;31.00;57.90;;;;;;5090791;28;20509;-77
2022/07/20 08:50:28;;;;;;;5.43;1.65;;;31.10;57.00;;;;;;5086023;28;20031;-76
2022/07/20 08:52:55;;;;;;;6.43;1.70;;;31.10;56.60;;;;;;5076874;28;20433;-77
2022/07/20 08:55:21;;;;;;;6.03;1.42;;;31.10;57.80;;;;;;5080724;28;20062;-76
2022/07/20 08:57:47;;;;;;;2.75;1.30;;;31.10;56.50;;;;;;5077615;28;20021;-76
2022/07/20 09:00:14;;;;;;;3.75;1.67;;;31.10;56.40;;;;;;5079537;28;20305;-78
2022/07/20 09:03:02;;;;;;;5.38;2.10;;;31.20;55.60;;;;;;5078515;28;20032;-75
2022/07/20 09:05:34;;;;;;;17.52;1.92;;;31.30;55.90;;;;;;5081440;28;20066;-77
2022/07/20 09:08:00;;;;;;;3.10;1.40;;;31.40;55.50;;;;;;5075380;28;20024;-76
2022/07/20 09:10:32;;;;;;;3.15;1.77;;;31.60;55.90;;;;;;5081224;28;20061;-76
2022/07/20 09:13:03;;;;;;;5.80;1.60;;;31.60;55.70;;;;;;5074401;28;20024;-75
2022/07/20 09:15:31;;;;;;;7.03;1.73;;;31.70;56.20;;;;;;5078573;28;20076;-76
2022/07/20 09:18:17;;;;;;;3.72;1.60;;;31.70;55.80;;;;;;5090645;28;20733;-76
2022/07/20 09:20:53;;;;;;;3.22;1.80;;;31.70;56.70;;;;;;5082578;28;20029;-76
2022/07/20 09:23:27;;;;;;;2.45;1.58;;;31.70;55.20;;;;;;5052628;28;20029;-76
2022/07/20 09:25:55;;;;;;;3.63;1.70;;;31.70;54.90;;;;;;5082150;28;20545;-76
2022/07/20 09:28:22;;;;;;;7.28;1.45;;;31.80;56.00;;;;;;5072796;28;20024;-75
2022/07/20 09:30:56;;;;;;;7.30;1.48;;;31.90;55.90;;;;;;5083797;28;20020;-76
2022/07/20 09:33:30;;;;;;;2.10;1.40;;;32.00;53.90;;;;;;5067892;28;20025;-75
2022/07/20 09:36:00;;;;;;;4.18;1.90;;;32.20;53.80;;;;;;5082382;28;20043;-76
2022/07/20 09:38:40;;;;;;;5.72;2.40;;;32.30;56.30;;;;;;5072616;28;20020;-76
2022/07/20 09:41:28;;;;;;;3.75;2.80;;;32.20;59.90;;;;;;5079427;28;20040;-77
2022/07/20 09:43:55;;;;;;;5.15;3.55;;;32.10;58.90;;;;;;5090541;28;20024;-77
2022/07/20 09:46:23;;;;;;;10.23;3.72;;;32.00;59.50;;;;;;5080325;28;20103;-76
2022/07/20 09:48:51;;;;;;;5.22;2.88;;;31.90;59.70;;;;;;5090601;28;20539;-76
2022/07/20 09:51:24;;;;;;;10.80;3.53;;;31.90;58.60;;;;;;5082304;28;20032;-76
2022/07/20 09:53:56;;;;;;;9.93;4.80;;;32.00;59.50;;;;;;5072225;28;20025;-78
2022/07/20 09:56:22;;;;;;;;;;;31.80;62.70;;;;;;5083448;28;20028;-75
2022/07/20 09:58:51;;;;;;;32.63;5.75;;;31.60;65.40;;;;;;5072274;28;19927;-74
2022/07/20 10:01:19;;;;;;;16.23;5.82;;;31.50;65.10;;;;;;5061731;28;20021;-75
2022/07/20 10:03:47;;;;;;;7.95;4.00;;;31.40;65.80;;;;;;5052167;28;20017;-75
2022/07/20 10:06:14;;;;;;;8.45;4.70;;;31.30;62.70;;;;;;5078801;28;20125;-75
2022/07/20 10:08:40;;;;;;;9.90;5.53;;;31.30;66.10;;;;;;5092288;28;20020;-74
2022/07/20 10:11:05;;;;;;;8.13;4.97;;;31.30;66.30;;;;;;5083843;28;20111;-74
2022/07/20 10:13:32;;;;;;;10.57;6.30;;;31.40;67.10;;;;;;5070632;28;20048;-75
2022/07/20 10:16:15;;;;;;;7.88;5.28;;;31.50;68.70;;;;;;5078554;28;20035;-75
2022/07/20 10:18:44;;;;;;;18.55;5.75;;;31.50;65.40;;;;;;5091478;28;20030;-75
2022/07/20 10:21:38;;;;;;;10.63;5.60;;;31.30;64.70;;;;;;5082017;28;20024;-75
2022/07/20 10:24:30;;;;;;;7.05;3.88;;;31.20;64.90;;;;;;5071202;28;20052;-76
2022/07/20 10:27:08;;;;;;;5.90;3.53;;;31.00;60.70;;;;;;5078216;28;20024;-78
2022/07/20 10:29:45;;;;;;;10.93;3.30;;;31.20;60.40;;;;;;5074245;28;20031;-76
2022/07/20 10:32:16;;;;;;;7.05;3.85;;;31.40;61.10;;;;;;5080458;28;20069;-77
2022/07/20 10:34:50;;;;;;;9.18;3.30;;;31.50;61.80;;;;;;5073838;28;20166;-77
2022/07/20 10:37:29;;;;;;;8.55;3.25;;;31.50;60.70;;;;;;5073584;28;20538;-79
2022/07/20 10:40:10;;;;;;;4.88;2.92;;;31.50;59.60;;;;;;5085598;28;20510;-76
2022/07/20 10:42:53;;;;;;;7.25;4.07;;;31.50;58.90;;;;;;5077237;28;20078;-77
2022/07/20 10:45:27;;;;;;;9.38;4.13;;;31.50;62.30;;;;;;5076992;28;20491;-77
2022/07/20 10:48:04;;;;;;;6.88;3.78;;;31.30;62.90;;;;;;5088288;28;20016;-76
2022/07/20 10:50:30;;;;;;;6.60;3.63;;;31.10;62.10;;;;;;5083828;28;20032;-77
2022/07/20 10:53:20;;;;;;;7.88;4.03;;;31.10;62.60;;;;;;5074141;28;20024;-75
2022/07/20 10:55:52;;;;;;;5.57;3.97;;;31.00;66.60;;;;;;5070231;28;20048;-76
2022/07/20 10:58:22;;;;;;;6.30;4.65;;;31.00;65.90;;;;;;5050058;28;20028;-76
2022/07/20 11:00:56;;;;;;;12.90;3.47;;;31.10;68.10;;;;;;5079410;28;20087;-75
2022/07/20 11:03:29;;;;;;;4.00;2.90;;;31.00;64.40;;;;;;5051052;28;20382;-76
2022/07/20 11:06:16;;;;;;;5.30;3.17;;;31.00;63.80;;;;;;5080756;28;20202;-77
2022/07/20 11:08:48;;;;;;;7.28;3.42;;;31.10;63.90;;;;;;5071246;28;20390;-77
2022/07/20 11:11:19;;;;;;;8.50;2.78;;;31.00;66.60;;;;;;5079367;28;20035;-77
2022/07/20 11:13:46;;;;;;;9.10;3.17;;;30.90;66.60;;;;;;5090869;28;20027;-76
2022/07/20 11:16:12;;;;;;;4.88;2.88;;;30.90;64.80;;;;;;5081061;28;20442;-76
2022/07/20 11:18:38;;;;;;;3.78;2.80;;;30.90;67.00;;;;;;5071002;28;20016;-76
2022/07/20 11:21:10;;;;;;;6.03;3.35;;;30.90;65.90;;;;;;5081163;28;20506;-76
2022/07/20 11:23:41;;;;;;;4.70;2.80;;;30.90;65.50;;;;;;5070963;28;20103;-75
2022/07/20 11:26:07;;;;;;;9.80;3.65;;;30.90;66.00;;;;;;5082398;28;20286;-75
2022/07/20 11:28:43;;;;;;;10.60;3.70;;;30.90;68.60;;;;;;5070873;28;20021;-75
2022/07/20 11:31:08;;;;;;;13.55;4.47;;;30.80;69.80;;;;;;5084963;28;20103;-76
2022/07/20 11:33:45;;;;;;;11.98;3.00;;;30.90;72.20;;;;;;5074956;28;20112;-76
2022/07/20 11:36:20;;;;;;;12.15;3.92;;;30.80;69.40;;;;;;5086388;28;20112;-76
2022/07/20 11:38:47;;;;;;;13.73;2.97;;;30.80;70.30;;;;;;5073690;28;20486;-76
2022/07/20 11:41:15;;;;;;;7.00;2.20;;;30.90;67.20;;;;;;5081468;28;20513;-77
2022/07/20 11:43:42;;;;;;;5.65;2.97;;;30.90;63.00;;;;;;5095148;28;20031;-76
2022/07/20 11:46:15;;;;;;;5.50;2.55;;;30.90;65.30;;;;;;5082880;28;20033;-78
2022/07/20 11:48:43;;;;;;;11.30;2.42;;;31.00;63.70;;;;;;5093627;28;20028;-77
2022/07/20 11:51:10;;;;;;;4.90;2.60;;;31.00;65.00;;;;;;5086333;28;20028;-79
2022/07/20 11:53:38;;;;;;;6.45;1.83;;;31.00;64.30;;;;;;5074494;28;20021;-77
2022/07/20 11:56:10;;;;;;;3.28;2.42;;;31.10;62.80;;;;;;5086172;28;20078;-75
2022/07/20 11:58:38;;;;;;;4.53;2.30;;;30.90;67.10;;;;;;5074610;28;20390;-77
2022/07/20 12:01:07;;;;;;;4.72;2.63;;;30.90;64.60;;;;;;5080619;28;20029;-75
2022/07/20 12:03:36;;;;;;;8.65;2.40;;;30.80;65.60;;;;;;5094632;28;20015;-76
2022/07/20 12:06:05;;;;;;;11.63;2.65;;;30.80;64.90;;;;;;5087077;28;20028;-76
2022/07/20 12:08:31;;;;;;;11.65;2.42;;;30.80;64.60;;;;;;5074465;28;20367;-75
2022/07/20 12:10:58;;;;;;;7.63;2.90;;;31.20;62.50;;;;;;5084485;28;20024;-78
2022/07/20 12:13:24;;;;;;;15.65;2.70;;;32.10;64.30;;;;;;5074305;28;20525;-76
2022/07/20 12:16:13;;;;;;;5.80;2.55;;;33.00;62.20;;;;;;5079793;28;20064;-75
2022/07/20 12:18:46;;;;;;;7.30;2.38;;;34.10;64.70;;;;;;5054201;28;20031;-75
2022/07/20 12:21:18;;;;;;;5.60;2.33;;;35.30;58.40;;;;;;5085680;28;20447;-78
2022/07/20 12:23:48;;;;;;;5.70;2.60;;;35.30;58.80;;;;;;5073884;28;20044;-77
2022/07/20 12:26:22;;;;;;;3.53;2.05;;;36.10;58.70;;;;;;5082210;28;20039;-77
2022/07/20 12:28:48;;;;;;;4.68;2.13;;;37.10;58.40;;;;;;5093641;28;20277;-79
2022/07/20 12:31:19;;;;;;;3.08;1.92;;;36.60;55.50;;;;;;5085340;28;20028;-77
2022/07/20 12:34:07;;;;;;;9.10;2.17;;;36.60;54.90;;;;;;5073520;28;20108;-76
2022/07/20 12:36:33;;;;;;;6.55;2.28;;;36.80;57.60;;;;;;5083891;28;20032;-77
2022/07/20 12:38:59;;;;;;;8.98;2.35;;;38.00;57.70;;;;;;5074221;28;20031;-76
2022/07/20 12:41:25;;;;;;;4.22;2.40;;;37.90;55.20;;;;;;5075856;28;20475;-75
2022/07/20 12:43:51;;;;;;;8.05;2.00;;;37.80;54.90;;;;;;5073470;28;20036;-78
2022/07/20 12:46:17;;;;;;;6.75;2.10;;;37.90;55.00;;;;;;5083913;28;20025;-77
2022/07/20 12:48:44;;;;;;;4.93;2.40;;;38.20;53.60;;;;;;5073653;28;20017;-78
2022/07/20 12:51:11;;;;;;;5.55;2.42;;;37.90;54.70;;;;;;5081566;28;20043;-77